Strona główna
METAR-TAF:

METAR-TAF

Lotnisko :

Port lotniczy Kuala Lumpur-Sułtan Abdul Aziz Shah

Subang Jaya, Malezja

Szerokość geograficzna: 03-07N, Długość geograficzna: 101-32E, wysokość: 27 m

Aktualna obserwacja pogody

Raport powstał 1 godzina i 2 minut temu, godzina 22:00 UTC
Cisza
Temperatura 26°C
Wilgotność 94%
Ciśnienie 1012 hPa
Widzialność: 8000 m
Mało chmury na wysokości 1700 ft, Cumulonimbus.

METAR: WMSA 302200Z 00000KT 8000 FEW017CB 26/25 Q1012

czas: 07:02 (23:02 UTC)

Prognoza

Raport powstał 6 godziny i 2 minut temu, godzina 17:00 UTC
Prognoza ważna od 30 godzina 18 UTC do 31 godzina 18 UTC
Wiatr 2 kt z kierunków zmiennych
Widzialność 10 km lub więcej
Mało chmury na wysokości 1700 ft, Cumulonimbus.
Przejściowo
od 31 godzina 06 UTC do 31 godzina 10 UTC
Widzialność: 4000 m
Mało chmury na wysokości 1700 ft, Cumulonimbus.
Rozproszone chmury na wysokości 1800 ft
burza, deszcz

TAF: WMSA 301700Z 3018/3118 VRB02KT 9999 FEW017CB TEMPO 3106/3110 4000 TSRA FEW017CB SCT018

Obserwacja i prognoza pogody dla ponad 4000 lotnisk (raport METAR i TAF).

Dostępne stacje oznaczono żółtymi i czerwonymi punktami na mapie.

Najedź kursorem aby zobaczyć nazwę stacji.

Kliknij aby zobaczyć obserwacje i prognozy pogody.

Aby zmienić mapę: kliknij na zielony przycisk z czarnym krzyżykiem, aby powiększyć; na zielony przycisk z myślnikiem, aby pomniejszyć; na zielone strzałki, aby przejść do map sąsiednich.


METAR-TAF: